LZIB Airport Information

Runway Information
Runway 04 Length 9515 ft width 197 ft
Elevation 436 ft Threshold 0 ft Heading 44
Runway 22 Length 9515 ft Width 197 ft
Elevation 430 ft Threshold 0 ft Heading 224
Runway 13 Length 10466 ft width 148 ft
Elevation 433 ft Threshold 0 ft Heading 134
Runway 31 Length 10466 ft Width 148 ft
Elevation 434 ft Threshold 777 ft Heading 314
Airport Frequencies
Type APP Name APP Frequency 120.9 MHZ
Type ATIS Name ATIS Frequency 128.65 MHZ
Type TWR Name TWR Frequency 118.3 MHZ
Airport Navaids
Type VOR-DME Name Janovce Frequency 110800 KHZ
Type NDB Name Stefanik South Frequency 330 KHZ
Type NDB Name Stefanik North Frequency 391 KHZ
Airport Weather Information & NOTAM
ADDS - METARS form results

(2050 UTC 26 January 2022)
Data provider http://aviationweather.gov/metar/data/
 
METAR text: LZIB 262030Z 33004KT 250V060 9999 BKN024 02/M03 Q1027 NOSIG
Conditions at: LZIB (BRATISLAVA IVANK, SK) observed 2030 UTC 26 January 2022
Temperature: 2.0°C (36°F)
Dewpoint: -3.0°C (27°F) [RH = 69%]
Pressure (altimeter): 30.32 inches Hg (1027.0 mb)
Winds: from the NNW (330 degrees) at 5 MPH (4 knots; 2.1 m/s)
Visibility: 6 or more miles (10+ km)
Ceiling: 2400 feet AGL
Clouds: broken clouds at 2400 feet AGL
Weather: no significant weather observed at this time

METAR text: LZIB 262000Z 32005KT 280V020 9999 BKN023 02/M02 Q1027 NOSIG
Conditions at: LZIB (BRATISLAVA IVANK, SK) observed 2000 UTC 26 January 2022
Temperature: 2.0°C (36°F)
Dewpoint: -2.0°C (28°F) [RH = 75%]
Pressure (altimeter): 30.32 inches Hg (1027.0 mb)
Winds: from the NW (320 degrees) at 6 MPH (5 knots; 2.6 m/s)
Visibility: 6 or more miles (10+ km)
Ceiling: 2300 feet AGL
Clouds: broken clouds at 2300 feet AGL
Weather: no significant weather observed at this time

Forecast for: LZIB (BRATISLAVA IVANK, SK)
Text: TAF LZIB 261700Z 2618/2718 29009KT 9999 FEW015 BKN020
Forecast period: 1800 UTC 26 January 2022 to 1800 UTC 27 January 2022
Forecast type: FROM: standard forecast or significant change
Winds: from the WNW (290 degrees) at 10 MPH (9 knots; 4.6 m/s)
Visibility: 6 or more miles (10+ km)
Ceiling: 2000 feet AGL
Clouds: few clouds at 1500 feet AGL
broken clouds at 2000 feet AGL
Weather: no significant weather forecast for this period
Text: TEMPO 2715/2718 28015G25KT
Forecast period: 1500 to 1800 UTC 27 January 2022
Forecast type: TEMPORARY: The following changes expected for less than half the time period
Winds: from the W (280 degrees) at 17 MPH (15 knots; 7.7 m/s)
gusting to 29 MPH (25 knots; 12.9 m/s)
Visibility: missing
Ceiling: unknown
Clouds: missing
Weather: no significant weather forecast for this period